createdAt,value
2022-11-07T00:01:17.775Z,10.70
2022-11-07T00:03:44.955Z,10.70
2022-11-07T00:06:12.110Z,10.80
2022-11-07T00:08:38.743Z,10.80
2022-11-07T00:11:05.931Z,10.80
2022-11-07T00:13:32.813Z,10.80
2022-11-07T00:16:01.004Z,10.80
2022-11-07T00:18:27.898Z,10.80
2022-11-07T00:20:54.481Z,10.90
2022-11-07T00:23:21.025Z,11.00
2022-11-07T00:25:47.578Z,11.10
2022-11-07T00:28:14.126Z,11.10
2022-11-07T00:30:40.665Z,11.20
2022-11-07T00:33:07.205Z,11.20
2022-11-07T00:35:34.160Z,11.30
2022-11-07T00:38:00.692Z,11.40
2022-11-07T00:40:27.335Z,11.30
2022-11-07T00:42:53.860Z,11.30
2022-11-07T00:45:20.752Z,11.20
2022-11-07T00:47:47.310Z,11.10
2022-11-07T00:50:13.854Z,11.10
2022-11-07T00:52:40.578Z,11.10
2022-11-07T00:55:07.522Z,11.00
2022-11-07T00:57:34.097Z,11.00
2022-11-07T01:00:00.697Z,11.00
2022-11-07T01:02:27.495Z,11.00
2022-11-07T01:05:12.391Z,11.10
2022-11-07T01:07:39.922Z,11.10
2022-11-07T01:10:07.851Z,11.00
2022-11-07T01:12:35.627Z,11.00
2022-11-07T01:15:05.697Z,11.00
2022-11-07T01:17:32.248Z,11.00
2022-11-07T01:19:58.793Z,11.00
2022-11-07T01:22:25.354Z,11.10
2022-11-07T01:24:51.908Z,11.10
2022-11-07T01:27:18.457Z,11.10
2022-11-07T01:29:45.056Z,11.20
2022-11-07T01:32:11.611Z,11.30
2022-11-07T01:34:38.214Z,11.50
2022-11-07T01:37:04.765Z,11.50
2022-11-07T01:39:31.318Z,11.50
2022-11-07T01:41:57.895Z,11.50
2022-11-07T01:44:24.410Z,11.50
2022-11-07T01:46:53.672Z,11.40
2022-11-07T01:49:23.817Z,11.40
2022-11-07T01:52:21.155Z,11.50
2022-11-07T01:55:19.381Z,11.50
2022-11-07T01:57:51.737Z,11.50
2022-11-07T02:00:20.520Z,11.50
2022-11-07T02:02:49.092Z,11.60
2022-11-07T02:05:40.533Z,11.60
2022-11-07T02:08:08.853Z,11.60
2022-11-07T02:10:36.628Z,11.50
2022-11-07T02:13:03.876Z,11.60
2022-11-07T02:15:30.555Z,11.60
2022-11-07T02:17:58.431Z,11.60
2022-11-07T02:20:24.988Z,11.50
2022-11-07T02:23:00.876Z,11.50
2022-11-07T02:25:27.436Z,11.60
2022-11-07T02:27:58.114Z,11.50
2022-11-07T02:30:29.183Z,11.50
2022-11-07T02:32:55.938Z,11.40
2022-11-07T02:35:39.583Z,11.50
2022-11-07T02:38:31.106Z,11.60
2022-11-07T02:41:03.573Z,11.60
2022-11-07T02:43:32.951Z,11.60
2022-11-07T02:46:02.538Z,11.60
2022-11-07T02:48:31.177Z,11.60
2022-11-07T02:50:58.419Z,11.70
2022-11-07T02:53:25.048Z,11.70
2022-11-07T02:55:51.577Z,11.70
2022-11-07T02:58:18.169Z,11.60
2022-11-07T03:00:44.741Z,11.60
2022-11-07T03:03:11.930Z,11.60
2022-11-07T03:05:38.683Z,11.70
2022-11-07T03:08:05.589Z,11.80
2022-11-07T03:10:32.205Z,11.80
2022-11-07T03:12:58.749Z,11.70
2022-11-07T03:15:25.567Z,11.70
2022-11-07T03:17:52.132Z,11.70
2022-11-07T03:20:19.718Z,11.60
2022-11-07T03:22:47.414Z,11.60
2022-11-07T03:25:13.979Z,11.70
2022-11-07T03:27:49.225Z,11.80
2022-11-07T03:30:17.206Z,11.70
2022-11-07T03:32:44.357Z,11.70
2022-11-07T03:35:11.047Z,11.70
2022-11-07T03:37:37.653Z,11.70
2022-11-07T03:40:04.711Z,11.60
2022-11-07T03:42:31.466Z,11.60
2022-11-07T03:44:58.036Z,11.60
2022-11-07T03:47:24.599Z,11.60
2022-11-07T03:49:51.132Z,11.60
2022-11-07T03:52:17.678Z,11.60
2022-11-07T03:54:44.212Z,11.70
2022-11-07T03:57:10.797Z,11.60
2022-11-07T03:59:37.508Z,11.60
2022-11-07T04:02:04.149Z,11.70
2022-11-07T04:04:30.885Z,11.70
2022-11-07T04:06:57.698Z,11.60
2022-11-07T04:09:24.267Z,11.70
2022-11-07T04:12:09.246Z,11.70
2022-11-07T04:14:54.591Z,11.70
2022-11-07T04:17:21.201Z,11.70
2022-11-07T04:19:50.577Z,11.70
2022-11-07T04:22:18.344Z,11.80
2022-11-07T04:24:46.249Z,11.80
2022-11-07T04:27:32.862Z,11.80
2022-11-07T04:30:00.233Z,11.80
2022-11-07T04:32:26.793Z,11.90
2022-11-07T04:34:53.361Z,11.90
2022-11-07T04:37:20.095Z,11.80
2022-11-07T04:39:46.647Z,11.70
2022-11-07T04:42:13.234Z,11.80
2022-11-07T04:44:39.783Z,11.70
2022-11-07T04:47:07.046Z,11.80
2022-11-07T04:49:33.769Z,11.90
2022-11-07T04:52:00.350Z,11.90
2022-11-07T04:54:26.937Z,11.90
2022-11-07T04:56:53.472Z,11.90
2022-11-07T04:59:20.025Z,11.80
2022-11-07T05:01:46.627Z,11.90
2022-11-07T05:04:13.243Z,11.90
2022-11-07T05:06:39.772Z,11.80
2022-11-07T05:09:06.399Z,11.80
2022-11-07T05:11:32.959Z,11.80
2022-11-07T05:13:59.520Z,11.80
2022-11-07T05:16:26.484Z,11.80
2022-11-07T05:18:53.045Z,11.80
2022-11-07T05:21:19.578Z,11.80
2022-11-07T05:23:46.110Z,11.90
2022-11-07T05:26:12.753Z,12.00
2022-11-07T05:28:40.029Z,12.20
2022-11-07T05:31:08.306Z,12.20
2022-11-07T05:33:35.655Z,12.20
2022-11-07T05:36:16.622Z,12.20
2022-11-07T05:38:45.457Z,12.20
2022-11-07T05:41:13.818Z,12.20
2022-11-07T05:43:40.508Z,12.30
2022-11-07T05:46:07.762Z,12.40
2022-11-07T05:48:34.887Z,12.30
2022-11-07T05:51:03.071Z,12.30
2022-11-07T05:53:29.676Z,12.20
2022-11-07T05:55:56.875Z,12.20
2022-11-07T05:58:23.754Z,12.10
2022-11-07T06:00:50.334Z,12.20
2022-11-07T06:03:20.159Z,12.20
2022-11-07T06:05:47.228Z,12.20
2022-11-07T06:08:14.342Z,12.20
2022-11-07T06:10:42.576Z,12.20
2022-11-07T06:13:14.632Z,12.30
2022-11-07T06:15:42.617Z,12.30
2022-11-07T06:18:20.173Z,12.30
2022-11-07T06:20:47.084Z,12.40
2022-11-07T06:23:14.030Z,12.40
2022-11-07T06:25:41.122Z,12.50
2022-11-07T06:28:10.416Z,12.50
2022-11-07T06:30:37.502Z,12.50
2022-11-07T06:33:10.289Z,12.60
2022-11-07T06:35:37.838Z,12.60
2022-11-07T06:38:06.855Z,12.60
2022-11-07T06:40:33.633Z,12.70
2022-11-07T06:43:08.244Z,12.70
2022-11-07T06:45:35.141Z,12.70
2022-11-07T06:48:01.933Z,12.80
2022-11-07T06:50:28.534Z,12.70
2022-11-07T06:52:55.084Z,12.80
2022-11-07T06:55:21.973Z,12.80
2022-11-07T06:57:48.711Z,12.70
2022-11-07T07:00:16.215Z,12.60
2022-11-07T07:02:57.966Z,12.60
2022-11-07T07:05:25.353Z,12.50
2022-11-07T07:07:51.940Z,12.50
2022-11-07T07:10:18.756Z,12.70
2022-11-07T07:12:45.324Z,12.70
2022-11-07T07:15:11.916Z,12.70
2022-11-07T07:17:38.464Z,12.80
2022-11-07T07:20:05.632Z,12.80
2022-11-07T07:22:32.207Z,12.90
2022-11-07T07:24:58.734Z,13.00
2022-11-07T07:27:25.293Z,13.00
2022-11-07T07:29:53.377Z,13.10
2022-11-07T07:32:20.906Z,13.20
2022-11-07T07:34:48.036Z,13.30
2022-11-07T07:37:14.599Z,13.30
2022-11-07T07:39:41.283Z,13.30
2022-11-07T07:42:07.843Z,13.30
2022-11-07T07:44:34.637Z,13.30
2022-11-07T07:47:01.164Z,13.30
2022-11-07T07:49:27.882Z,13.30
2022-11-07T07:51:54.631Z,13.30
2022-11-07T07:54:21.172Z,13.30
2022-11-07T07:56:47.707Z,13.30
2022-11-07T07:59:14.283Z,13.50
2022-11-07T08:01:41.018Z,13.50
2022-11-07T08:04:07.884Z,13.40
2022-11-07T08:06:35.421Z,13.50
2022-11-07T08:09:01.979Z,13.50
2022-11-07T08:11:28.878Z,13.60
2022-11-07T08:13:59.898Z,13.60
2022-11-07T08:16:27.948Z,13.60
2022-11-07T08:18:54.528Z,13.60
2022-11-07T08:21:21.065Z,13.70
2022-11-07T08:23:49.159Z,13.60
2022-11-07T08:26:15.720Z,13.70
2022-11-07T08:28:42.336Z,13.70
2022-11-07T08:31:11.823Z,13.70
2022-11-07T08:33:38.874Z,13.70
2022-11-07T08:36:07.195Z,13.80
2022-11-07T08:38:35.288Z,13.90
2022-11-07T08:41:01.982Z,14.00
2022-11-07T08:43:28.677Z,14.00
2022-11-07T08:45:55.864Z,14.10
2022-11-07T08:48:23.270Z,14.10
2022-11-07T08:50:55.107Z,13.80
2022-11-07T08:53:22.383Z,13.40
2022-11-07T08:55:49.211Z,13.30
2022-11-07T08:58:16.436Z,13.10
2022-11-07T09:00:43.027Z,13.00
2022-11-07T09:05:58.348Z,12.80
2022-11-07T09:08:25.505Z,12.70
2022-11-07T09:10:52.110Z,12.70
2022-11-07T09:13:20.599Z,12.80
2022-11-07T09:15:50.921Z,12.80
2022-11-07T09:18:19.499Z,12.90
2022-11-07T09:20:46.199Z,13.00
2022-11-07T09:23:12.878Z,13.00
2022-11-07T09:25:39.582Z,13.00
2022-11-07T09:28:06.226Z,12.90
2022-11-07T09:30:32.886Z,12.90
2022-11-07T09:32:59.785Z,12.90
2022-11-07T09:35:26.945Z,12.90
2022-11-07T09:37:53.583Z,13.00
2022-11-07T09:40:28.382Z,13.10
2022-11-07T09:42:55.101Z,13.30
2022-11-07T09:45:21.640Z,13.50
2022-11-07T09:47:55.161Z,13.50
2022-11-07T09:50:49.238Z,13.70
2022-11-07T09:53:37.032Z,13.70
2022-11-07T09:56:05.564Z,14.00
2022-11-07T09:58:40.847Z,14.20
2022-11-07T10:01:12.403Z,14.40
2022-11-07T10:03:43.054Z,14.30
2022-11-07T10:06:24.353Z,14.30
2022-11-07T10:09:13.901Z,14.10
2022-11-07T10:11:47.393Z,13.90
2022-11-07T10:14:37.308Z,13.80
2022-11-07T10:17:27.526Z,13.90
2022-11-07T10:20:03.065Z,14.00
2022-11-07T10:22:47.944Z,14.20
2022-11-07T10:25:35.225Z,14.20
2022-11-07T10:28:07.991Z,14.20
2022-11-07T10:30:34.952Z,14.20
2022-11-07T10:33:13.744Z,14.10
2022-11-07T10:35:49.058Z,14.70
2022-11-07T10:38:34.304Z,15.40
2022-11-07T10:41:01.090Z,16.00
2022-11-07T10:43:38.053Z,16.40
2022-11-07T10:46:12.951Z,16.60
2022-11-07T10:48:56.526Z,16.70
2022-11-07T10:51:41.971Z,17.10
2022-11-07T10:54:24.778Z,17.10
2022-11-07T10:57:08.904Z,16.40
2022-11-07T10:59:39.250Z,16.00
2022-11-07T11:02:41.910Z,15.60
2022-11-07T11:05:33.307Z,15.30
2022-11-07T11:08:20.999Z,15.10
2022-11-07T11:10:48.074Z,15.00
2022-11-07T11:13:29.853Z,14.90
2022-11-07T11:16:05.309Z,14.80
2022-11-07T11:18:32.749Z,14.80
2022-11-07T11:21:02.803Z,14.80
2022-11-07T11:23:43.951Z,14.90
2022-11-07T11:26:24.745Z,14.90
2022-11-07T11:29:06.826Z,15.10
2022-11-07T11:31:36.993Z,15.10
2022-11-07T11:34:24.026Z,15.20
2022-11-07T11:37:01.489Z,15.20
2022-11-07T11:39:45.246Z,15.30
2022-11-07T11:42:25.636Z,15.40
2022-11-07T11:44:53.720Z,15.40
2022-11-07T11:47:34.683Z,15.60
2022-11-07T11:50:15.515Z,15.50
2022-11-07T11:52:42.734Z,15.60
2022-11-07T11:55:17.411Z,16.00
2022-11-07T11:58:01.465Z,16.10
2022-11-07T12:00:29.767Z,16.50
2022-11-07T12:03:47.838Z,16.30
2022-11-07T12:06:15.300Z,16.70
2022-11-07T12:08:55.014Z,16.70
2022-11-07T12:11:49.629Z,17.40
2022-11-07T12:14:44.484Z,17.50
2022-11-07T12:17:17.882Z,17.20
2022-11-07T12:19:52.882Z,17.10
2022-11-07T12:22:34.849Z,16.70
2022-11-07T12:25:18.445Z,16.40
2022-11-07T12:28:01.320Z,16.60
2022-11-07T12:30:37.984Z,16.70
2022-11-07T12:33:35.181Z,16.70
2022-11-07T12:36:12.644Z,16.70
2022-11-07T12:38:57.552Z,16.70
2022-11-07T12:41:38.288Z,16.40
2022-11-07T12:44:25.659Z,16.30
2022-11-07T12:46:56.301Z,16.00
2022-11-07T12:49:36.304Z,15.90
2022-11-07T12:52:14.810Z,15.90
2022-11-07T12:54:50.911Z,16.00
2022-11-07T12:57:27.022Z,16.30
2022-11-07T13:00:01.608Z,16.30
2022-11-07T13:02:33.829Z,16.30
2022-11-07T13:05:24.909Z,16.20
2022-11-07T13:07:59.877Z,16.10
2022-11-07T13:10:40.717Z,16.10
2022-11-07T13:13:20.042Z,16.10
2022-11-07T13:16:14.118Z,16.40
2022-11-07T13:18:33.585Z,16.50
2022-11-07T13:21:05.578Z,16.30
2022-11-07T13:23:33.141Z,16.20
2022-11-07T13:26:20.396Z,16.30
2022-11-07T13:29:00.833Z,16.20
2022-11-07T13:31:39.272Z,16.10
2022-11-07T13:34:17.962Z,16.00
2022-11-07T13:36:47.253Z,16.00
2022-11-07T13:39:14.528Z,16.00
2022-11-07T13:41:44.388Z,16.00
2022-11-07T13:44:28.549Z,15.90
2022-11-07T13:47:05.142Z,15.90
2022-11-07T13:49:45.201Z,15.90
2022-11-07T13:52:50.374Z,15.90
2022-11-07T13:55:21.499Z,15.90
2022-11-07T13:57:56.213Z,15.90
2022-11-07T14:00:22.956Z,15.70
2022-11-07T14:02:56.052Z,15.50
2022-11-07T14:05:25.960Z,15.60
2022-11-07T14:07:59.968Z,15.70
2022-11-07T14:10:37.304Z,15.70
2022-11-07T14:13:30.231Z,16.20
2022-11-07T14:16:01.001Z,16.60
2022-11-07T14:18:31.725Z,16.80
2022-11-07T14:20:59.713Z,17.00
2022-11-07T14:23:29.586Z,17.00
2022-11-07T14:26:15.199Z,17.30
2022-11-07T14:28:41.846Z,17.50
2022-11-07T14:31:25.145Z,17.60
2022-11-07T14:33:54.410Z,17.40
2022-11-07T14:36:21.390Z,17.00
2022-11-07T14:38:50.448Z,16.70
2022-11-07T14:41:18.582Z,16.60
2022-11-07T14:43:46.917Z,16.30
2022-11-07T14:46:21.188Z,16.00
2022-11-07T14:48:51.198Z,16.00
2022-11-07T14:51:23.701Z,15.90
2022-11-07T14:54:11.385Z,16.00
2022-11-07T14:56:43.043Z,15.80
2022-11-07T14:59:15.063Z,15.70
2022-11-07T15:02:02.706Z,15.70
2022-11-07T15:04:41.637Z,15.80
2022-11-07T15:07:26.278Z,15.80
2022-11-07T15:09:54.716Z,15.60
2022-11-07T15:12:27.417Z,15.60
2022-11-07T15:15:25.856Z,15.50
2022-11-07T15:17:58.420Z,15.50
2022-11-07T15:20:31.052Z,15.40
2022-11-07T15:22:59.318Z,15.30
2022-11-07T15:25:38.841Z,15.20
2022-11-07T15:28:44.054Z,15.20
2022-11-07T15:31:24.072Z,15.30
2022-11-07T15:33:55.912Z,15.20
2022-11-07T15:36:23.109Z,15.20
2022-11-07T15:38:51.416Z,15.10
2022-11-07T15:41:19.001Z,15.00
2022-11-07T15:43:45.537Z,15.10
2022-11-07T15:46:34.931Z,15.10
2022-11-07T15:49:02.501Z,15.00
2022-11-07T15:51:29.945Z,15.00
2022-11-07T15:53:56.569Z,15.00
2022-11-07T15:56:24.720Z,15.00
2022-11-07T15:58:53.685Z,14.90
2022-11-07T16:01:20.404Z,14.90
2022-11-07T16:03:47.035Z,14.90
2022-11-07T16:06:28.666Z,14.80
2022-11-07T16:08:55.269Z,14.80
2022-11-07T16:11:22.007Z,14.80
2022-11-07T16:13:48.601Z,14.70
2022-11-07T16:16:23.986Z,14.70
2022-11-07T16:18:52.880Z,14.60
2022-11-07T16:21:20.476Z,14.70
2022-11-07T16:23:50.255Z,14.60
2022-11-07T16:26:23.188Z,14.60
2022-11-07T16:28:50.051Z,14.60
2022-11-07T16:31:16.864Z,14.60
2022-11-07T16:33:43.466Z,14.60
2022-11-07T16:36:34.692Z,14.60
2022-11-07T16:39:02.207Z,14.70
2022-11-07T16:41:29.601Z,14.70
2022-11-07T16:43:56.263Z,14.60
2022-11-07T16:46:25.304Z,14.50
2022-11-07T16:49:03.397Z,14.60
2022-11-07T16:51:29.941Z,14.60
2022-11-07T16:53:56.465Z,14.70
2022-11-07T16:56:26.560Z,14.60
2022-11-07T16:58:54.676Z,14.70
2022-11-07T17:01:23.462Z,14.60
2022-11-07T17:03:50.406Z,14.50
2022-11-07T17:06:32.854Z,14.60
2022-11-07T17:09:08.645Z,14.60
2022-11-07T17:11:38.999Z,14.70
2022-11-07T17:14:05.632Z,14.70
2022-11-07T17:16:34.708Z,14.80
2022-11-07T17:19:01.599Z,14.70
2022-11-07T17:21:33.842Z,14.80
2022-11-07T17:24:01.323Z,14.80
2022-11-07T17:26:31.745Z,14.90
2022-11-07T17:28:58.865Z,14.90
2022-11-07T17:31:25.653Z,14.90
2022-11-07T17:33:52.215Z,14.90
2022-11-07T17:36:36.270Z,14.90
2022-11-07T17:39:11.129Z,14.80
2022-11-07T17:41:39.585Z,14.80
2022-11-07T17:44:06.480Z,14.90
2022-11-07T17:46:34.658Z,14.90
2022-11-07T17:49:04.063Z,14.80
2022-11-07T17:51:30.745Z,14.90
2022-11-07T17:53:58.357Z,14.90
2022-11-07T17:56:27.534Z,15.00
2022-11-07T17:58:57.140Z,14.90
2022-11-07T18:01:26.152Z,14.90
2022-11-07T18:03:54.480Z,14.90
2022-11-07T18:06:23.362Z,14.90
2022-11-07T18:08:52.637Z,14.90
2022-11-07T18:11:21.348Z,14.80
2022-11-07T18:13:50.801Z,14.80
2022-11-07T18:16:20.156Z,14.70
2022-11-07T18:18:47.094Z,14.70
2022-11-07T18:21:14.022Z,14.60
2022-11-07T18:23:41.502Z,14.70
2022-11-07T18:26:25.014Z,14.60
2022-11-07T18:28:53.724Z,14.50
2022-11-07T18:31:22.798Z,14.40
2022-11-07T18:33:52.557Z,14.30
2022-11-07T18:36:21.081Z,14.20
2022-11-07T18:38:47.769Z,14.30
2022-11-07T18:41:18.797Z,14.30
2022-11-07T18:43:46.017Z,14.40
2022-11-07T18:46:15.322Z,14.40
2022-11-07T18:48:43.184Z,14.40
2022-11-07T18:51:22.363Z,14.30
2022-11-07T18:53:53.920Z,14.30
2022-11-07T18:56:21.918Z,14.40
2022-11-07T18:58:49.234Z,14.30
2022-11-07T19:01:20.504Z,14.40
2022-11-07T19:03:52.418Z,14.30
2022-11-07T19:06:22.104Z,14.30
2022-11-07T19:08:49.869Z,14.20
2022-11-07T19:11:20.236Z,14.30
2022-11-07T19:13:48.160Z,14.30
2022-11-07T19:16:17.619Z,14.30
2022-11-07T19:18:49.360Z,14.40
2022-11-07T19:21:22.086Z,14.20
2022-11-07T19:23:50.078Z,14.20
2022-11-07T19:26:19.374Z,14.00
2022-11-07T19:28:46.837Z,13.90
2022-11-07T19:31:14.320Z,13.90
2022-11-07T19:33:41.965Z,14.00
2022-11-07T19:36:13.924Z,13.90
2022-11-07T19:38:41.282Z,13.90
2022-11-07T19:41:10.332Z,13.80
2022-11-07T19:43:39.049Z,13.80
2022-11-07T19:46:08.473Z,13.80
2022-11-07T19:48:35.601Z,13.90
2022-11-07T19:51:11.124Z,13.80
2022-11-07T19:53:38.180Z,13.80
2022-11-07T19:56:14.864Z,13.80
2022-11-07T19:58:42.821Z,13.80
2022-11-07T20:01:12.297Z,13.90
2022-11-07T20:03:41.258Z,13.90
2022-11-07T20:06:10.889Z,14.00
2022-11-07T20:08:37.701Z,14.00
2022-11-07T20:11:04.331Z,14.00
2022-11-07T20:13:31.157Z,13.90
2022-11-07T20:15:57.832Z,13.90
2022-11-07T20:18:24.654Z,13.90
2022-11-07T20:20:51.263Z,13.80
2022-11-07T20:23:18.079Z,13.80
2022-11-07T20:25:44.858Z,13.70
2022-11-07T20:28:11.384Z,13.70
2022-11-07T20:30:41.424Z,13.60
2022-11-07T20:33:08.025Z,13.60
2022-11-07T20:35:34.599Z,13.70
2022-11-07T20:38:01.152Z,13.60
2022-11-07T20:40:29.409Z,13.50
2022-11-07T20:42:56.045Z,13.50
2022-11-07T20:45:22.607Z,13.40
2022-11-07T20:47:49.606Z,13.40
2022-11-07T20:50:16.209Z,13.50
2022-11-07T20:52:42.793Z,13.60
2022-11-07T20:55:09.490Z,13.60
2022-11-07T20:57:36.072Z,13.70
2022-11-07T21:00:03.743Z,13.70
2022-11-07T21:02:30.524Z,13.70
2022-11-07T21:05:16.760Z,13.80
2022-11-07T21:07:44.397Z,14.00
2022-11-07T21:10:11.244Z,13.90
2022-11-07T21:12:37.974Z,14.00
2022-11-07T21:15:05.023Z,14.00
2022-11-07T21:17:31.590Z,14.00
2022-11-07T21:19:58.276Z,14.00
2022-11-07T21:22:29.149Z,14.00
2022-11-07T21:24:56.309Z,14.00
2022-11-07T21:27:23.263Z,13.90
2022-11-07T21:29:50.043Z,13.80
2022-11-07T21:32:16.594Z,13.70
2022-11-07T21:34:45.200Z,13.60
2022-11-07T21:37:11.925Z,13.70
2022-11-07T21:39:38.460Z,13.70
2022-11-07T21:42:05.108Z,13.70
2022-11-07T21:44:31.685Z,13.60
2022-11-07T21:46:58.248Z,13.60
2022-11-07T21:49:24.872Z,13.60
2022-11-07T21:51:51.537Z,13.50
2022-11-07T21:54:18.082Z,13.60
2022-11-07T21:56:44.661Z,13.50
2022-11-07T21:59:12.093Z,13.50
2022-11-07T22:01:39.392Z,13.50
2022-11-07T22:04:10.876Z,13.60
2022-11-07T22:06:42.004Z,13.60
2022-11-07T22:09:10.218Z,13.60
2022-11-07T22:11:37.013Z,13.50
2022-11-07T22:14:03.966Z,13.50
2022-11-07T22:16:31.357Z,13.40
2022-11-07T22:19:01.011Z,13.30
2022-11-07T22:21:27.732Z,13.20
2022-11-07T22:23:56.008Z,13.30
2022-11-07T22:26:24.310Z,13.00
2022-11-07T22:28:51.459Z,12.90
2022-11-07T22:31:26.147Z,12.90
2022-11-07T22:33:54.121Z,12.70
2022-11-07T22:36:21.266Z,12.80
2022-11-07T22:38:47.976Z,12.70
2022-11-07T22:41:20.308Z,12.80
2022-11-07T22:43:46.965Z,12.90
2022-11-07T22:46:16.575Z,12.80
2022-11-07T22:48:44.345Z,12.70
2022-11-07T22:51:13.494Z,12.60
2022-11-07T22:53:40.288Z,12.50
2022-11-07T22:56:14.934Z,12.50
2022-11-07T22:58:42.391Z,12.50
2022-11-07T23:01:25.327Z,12.50
2022-11-07T23:03:52.741Z,12.60
2022-11-07T23:06:20.190Z,12.50
2022-11-07T23:08:48.190Z,12.50
2022-11-07T23:14:08.497Z,12.30
2022-11-07T23:16:42.509Z,12.30
2022-11-07T23:19:12.639Z,12.40
2022-11-07T23:21:39.280Z,12.20
2022-11-07T23:24:06.214Z,12.20
2022-11-07T23:26:34.292Z,12.20
2022-11-07T23:29:10.920Z,12.30
2022-11-07T23:31:40.106Z,12.30
2022-11-07T23:34:07.932Z,12.50
2022-11-07T23:36:35.040Z,12.50
2022-11-07T23:39:06.782Z,12.60
2022-11-07T23:41:33.986Z,12.60
2022-11-07T23:44:00.552Z,12.60
2022-11-07T23:46:45.839Z,12.60
2022-11-07T23:49:30.962Z,12.60
2022-11-07T23:51:57.539Z,12.60
2022-11-07T23:54:42.593Z,12.60
2022-11-07T23:57:09.184Z,12.60
2022-11-07T23:59:55.044Z,12.70
